createdAt,value
2022-11-28T00:01:27.716Z,119.68
2022-11-28T00:03:55.645Z,199.32
2022-11-28T00:06:23.845Z,148.23
2022-11-28T00:08:51.763Z,165.75
2022-11-28T00:11:19.834Z,137.73
2022-11-28T00:13:47.843Z,139.80
2022-11-28T00:16:17.700Z,132.88
2022-11-28T00:18:45.626Z,137.80
2022-11-28T00:21:14.608Z,131.00
2022-11-28T00:23:46.462Z,118.20
2022-11-28T00:26:19.327Z,127.32
2022-11-28T00:28:47.368Z,124.18
2022-11-28T00:31:16.167Z,121.97
2022-11-28T00:33:44.324Z,119.85
2022-11-28T00:36:12.160Z,118.28
2022-11-28T00:38:41.282Z,119.30
2022-11-28T00:41:14.372Z,122.38
2022-11-28T00:43:43.088Z,117.93
2022-11-28T00:46:11.436Z,110.72
2022-11-28T00:48:59.660Z,105.40
2022-11-28T00:51:29.347Z,110.32
2022-11-28T00:53:58.868Z,120.85
2022-11-28T00:56:31.818Z,116.65
2022-11-28T00:59:00.052Z,118.38
2022-11-28T01:01:32.578Z,116.72
2022-11-28T01:04:02.021Z,128.35
2022-11-28T01:06:32.403Z,114.35
2022-11-28T01:09:01.544Z,113.47
2022-11-28T01:11:29.584Z,129.10
2022-11-28T01:14:02.378Z,118.93
2022-11-28T01:16:30.635Z,119.15
2022-11-28T01:18:58.488Z,124.05
2022-11-28T01:21:26.821Z,116.13
2022-11-28T01:23:54.688Z,119.47
2022-11-28T01:26:27.224Z,134.65
2022-11-28T01:28:55.160Z,117.25
2022-11-28T01:31:24.714Z,123.20
2022-11-28T01:33:52.699Z,119.53
2022-11-28T01:36:20.735Z,123.63
2022-11-28T01:38:48.864Z,124.70
2022-11-28T01:41:17.671Z,124.45
2022-11-28T01:44:04.689Z,140.05
2022-11-28T01:46:33.542Z,127.70
2022-11-28T01:49:14.308Z,133.63
2022-11-28T01:51:44.691Z,135.37
2022-11-28T01:54:13.248Z,147.63
2022-11-28T01:56:47.814Z,137.80
2022-11-28T01:59:16.129Z,140.45
2022-11-28T02:01:44.951Z,139.07
2022-11-28T02:04:14.162Z,156.63
2022-11-28T02:06:42.337Z,147.95
2022-11-28T02:09:14.513Z,152.55
2022-11-28T02:27:32.523Z,158.73
2022-11-28T02:30:03.272Z,140.00
2022-11-28T02:32:55.700Z,165.23
2022-11-28T02:35:58.626Z,157.68
2022-11-28T02:38:54.075Z,154.70
2022-11-28T02:41:43.076Z,162.98
2022-11-28T02:44:12.938Z,175.07
2022-11-28T02:47:06.932Z,151.05
2022-11-28T02:49:42.763Z,171.63
2022-11-28T02:52:18.077Z,151.38
2022-11-28T02:54:46.377Z,141.00
2022-11-28T02:57:16.949Z,175.13
2022-11-28T02:59:47.639Z,163.65
2022-11-28T03:02:29.527Z,157.02
2022-11-28T03:05:32.271Z,191.50
2022-11-28T03:08:32.219Z,174.63
2022-11-28T03:11:14.429Z,195.32
2022-11-28T03:14:11.756Z,190.82
2022-11-28T03:16:57.221Z,210.23
2022-11-28T03:19:31.183Z,186.55
2022-11-28T03:22:12.411Z,203.55
2022-11-28T03:24:49.580Z,158.15
2022-11-28T03:27:45.319Z,175.32
2022-11-28T03:30:41.247Z,166.07
2022-11-28T03:33:09.140Z,157.00
2022-11-28T03:35:39.895Z,191.70
2022-11-28T03:38:15.854Z,161.88
2022-11-28T03:40:46.105Z,158.52
2022-11-28T03:43:19.675Z,154.40
2022-11-28T03:45:49.585Z,177.57
2022-11-28T03:48:24.095Z,148.35
2022-11-28T03:51:05.988Z,173.63
2022-11-28T03:53:42.974Z,174.25
2022-11-28T03:56:17.855Z,163.57
2022-11-28T03:59:23.186Z,144.05
2022-11-28T04:02:02.125Z,131.10
2022-11-28T04:04:37.530Z,141.32
2022-11-28T04:07:24.500Z,89.15
2022-11-28T04:10:00.899Z,88.35
2022-11-28T04:12:50.215Z,55.20
2022-11-28T04:15:19.938Z,44.85
2022-11-28T04:18:04.016Z,33.05
2022-11-28T04:20:52.529Z,48.15
2022-11-28T04:23:20.666Z,33.33
2022-11-28T04:26:02.343Z,32.47
2022-11-28T04:28:31.404Z,29.85
2022-11-28T04:30:59.539Z,29.10
2022-11-28T04:33:27.372Z,27.58
2022-11-28T04:35:55.921Z,29.85
2022-11-28T04:38:24.201Z,28.02
2022-11-28T04:41:02.749Z,24.88
2022-11-28T04:43:32.790Z,26.58
2022-11-28T04:46:04.752Z,23.67
2022-11-28T04:48:34.606Z,27.77
2022-11-28T04:51:24.287Z,25.63
2022-11-28T04:54:07.433Z,31.35
2022-11-28T04:56:52.396Z,37.33
2022-11-28T04:59:20.471Z,37.42
2022-11-28T05:01:48.377Z,37.33
2022-11-28T05:04:17.585Z,36.60
2022-11-28T05:06:45.809Z,32.50
2022-11-28T05:09:13.943Z,33.75
2022-11-28T05:11:44.142Z,36.63
2022-11-28T05:14:12.008Z,37.35
2022-11-28T05:16:39.851Z,32.10
2022-11-28T05:19:07.694Z,36.45
2022-11-28T05:21:35.570Z,30.17
2022-11-28T05:24:22.559Z,30.27
2022-11-28T05:27:08.881Z,36.63
2022-11-28T05:29:39.744Z,34.03
2022-11-28T05:32:07.732Z,33.17
2022-11-28T05:34:36.212Z,33.10
2022-11-28T05:37:04.850Z,36.42
2022-11-28T05:39:32.829Z,29.20
2022-11-28T05:42:00.733Z,33.20
2022-11-28T05:44:28.578Z,36.63
2022-11-28T05:46:56.428Z,34.20
2022-11-28T05:49:25.721Z,31.38
2022-11-28T05:51:54.009Z,32.80
2022-11-28T05:54:22.215Z,35.13
2022-11-28T05:56:52.668Z,37.22
2022-11-28T05:59:20.710Z,36.38
2022-11-28T06:01:48.556Z,37.97
2022-11-28T06:04:16.530Z,43.47
2022-11-28T06:06:44.550Z,45.08
2022-11-28T06:09:12.589Z,38.50
2022-11-28T06:11:41.034Z,43.33
2022-11-28T06:14:09.789Z,33.72
2022-11-28T06:16:38.087Z,40.80
2022-11-28T06:19:06.089Z,40.60
2022-11-28T06:21:34.691Z,43.50
2022-11-28T06:24:02.530Z,45.15
2022-11-28T06:26:30.821Z,48.80
2022-11-28T06:28:59.185Z,56.75
2022-11-28T06:31:31.359Z,54.95
2022-11-28T06:34:05.279Z,44.90
2022-11-28T06:36:33.107Z,46.88
2022-11-28T06:39:00.884Z,45.40
2022-11-28T06:41:28.916Z,47.80
2022-11-28T06:43:57.503Z,47.72
2022-11-28T06:46:25.527Z,54.40
2022-11-28T06:48:53.781Z,55.42
2022-11-28T06:51:22.198Z,68.57
2022-11-28T06:53:50.079Z,69.05
2022-11-28T06:56:19.447Z,70.88
2022-11-28T06:58:47.650Z,69.50
2022-11-28T07:01:18.414Z,75.32
2022-11-28T07:03:46.581Z,75.03
2022-11-28T07:06:17.390Z,57.33
2022-11-28T07:08:45.483Z,50.80
2022-11-28T07:11:14.653Z,59.20
2022-11-28T07:13:43.006Z,57.30
2022-11-28T07:16:14.244Z,58.65
2022-11-28T07:18:42.344Z,58.95
2022-11-28T07:21:10.420Z,67.20
2022-11-28T07:23:38.478Z,69.40
2022-11-28T07:26:06.620Z,58.33
2022-11-28T07:28:34.983Z,60.95
2022-11-28T07:31:14.295Z,64.57
2022-11-28T07:33:43.066Z,60.53
2022-11-28T09:58:43.288Z,86.80
2022-11-28T10:01:11.372Z,80.75
2022-11-28T10:04:03.529Z,75.38
2022-11-28T10:07:02.891Z,90.40
2022-11-28T10:09:38.627Z,74.85
2022-11-28T10:12:25.564Z,80.85
2022-11-28T10:15:27.021Z,76.40
2022-11-28T10:18:10.994Z,75.32
2022-11-28T10:20:42.110Z,87.43
2022-11-28T10:23:46.159Z,75.47
2022-11-28T10:26:17.643Z,78.82
2022-11-28T10:28:47.831Z,94.60
2022-11-28T10:31:28.029Z,85.47
2022-11-28T10:36:57.547Z,77.72
2022-11-28T10:39:26.458Z,79.15
2022-11-28T10:42:12.547Z,74.72
2022-11-28T10:45:00.172Z,82.47
2022-11-28T10:47:34.198Z,85.03
2022-11-28T10:50:08.973Z,78.93
2022-11-28T10:52:47.483Z,72.07
2022-11-28T10:55:30.510Z,81.85
2022-11-28T11:17:36.500Z,69.22
2022-11-28T11:20:29.409Z,64.75
2022-11-28T11:23:14.238Z,67.07
2022-11-28T11:25:58.649Z,66.70
2022-11-28T11:28:38.277Z,66.40
2022-11-28T11:31:15.082Z,65.28
2022-11-28T11:33:44.257Z,71.20
2022-11-28T11:36:28.710Z,71.47
2022-11-28T11:39:07.100Z,69.03
2022-11-28T11:41:36.179Z,76.13
2022-11-28T11:44:15.918Z,73.25
2022-11-28T11:46:51.958Z,76.03
2022-11-28T11:49:48.257Z,86.07
2022-11-28T11:52:22.151Z,72.80
2022-11-28T11:54:59.040Z,65.05
2022-11-28T11:57:34.538Z,76.22
2022-11-28T12:00:21.915Z,62.35
2022-11-28T12:03:00.372Z,71.15
2022-11-28T12:05:46.698Z,70.10
2022-11-28T12:08:35.512Z,65.03
2022-11-28T12:11:46.595Z,79.22
2022-11-28T12:14:27.175Z,71.22
2022-11-28T12:17:19.452Z,78.38
2022-11-28T12:19:52.209Z,80.93
2022-11-28T12:22:54.560Z,83.45
2022-11-28T12:25:26.416Z,85.70
2022-11-28T12:28:11.494Z,81.00
2022-11-28T12:30:59.335Z,79.65
2022-11-28T12:33:54.328Z,88.72
2022-11-28T12:36:47.069Z,87.13
2022-11-28T12:39:18.758Z,82.50
2022-11-28T12:42:06.350Z,86.30
2022-11-28T12:44:48.750Z,89.72
2022-11-28T12:47:16.641Z,94.75
2022-11-28T12:49:59.536Z,88.20
2022-11-28T12:52:45.830Z,80.53
2022-11-28T12:55:26.192Z,86.85
2022-11-28T12:58:11.872Z,72.07
2022-11-28T13:00:58.704Z,88.18
